createdAt,value
2022-10-06T00:00:30.871Z,96.79
2022-10-06T00:01:30.920Z,96.89
2022-10-06T00:02:30.894Z,97.34
2022-10-06T00:03:30.827Z,97.04
2022-10-06T00:04:30.812Z,97.44
2022-10-06T00:05:30.818Z,97.65
2022-10-06T00:06:30.788Z,97.55
2022-10-06T00:07:30.803Z,98.05
2022-10-06T00:08:31.101Z,98.05
2022-10-06T00:09:30.767Z,98.36
2022-10-06T00:10:30.771Z,98.77
2022-10-06T00:11:30.739Z,98.77
2022-10-06T00:12:30.724Z,98.16
2022-10-06T00:13:30.719Z,98.46
2022-10-06T00:14:30.695Z,98.56
2022-10-06T00:15:30.823Z,98.36
2022-10-06T00:16:30.681Z,98.16
2022-10-06T00:17:30.676Z,98.46
2022-10-06T00:18:31.226Z,98.36
2022-10-06T00:19:30.654Z,98.77
2022-10-06T00:20:30.650Z,98.41
2022-10-06T00:21:30.615Z,98.46
2022-10-06T00:22:30.627Z,98.86
2022-10-06T00:23:30.604Z,98.66
2022-10-06T00:24:30.586Z,99.11
2022-10-06T00:25:30.606Z,99.17
2022-10-06T00:26:30.590Z,98.97
2022-10-06T00:27:30.558Z,98.56
2022-10-06T00:28:30.989Z,98.97
2022-10-06T00:29:30.538Z,98.66
2022-10-06T00:30:30.526Z,98.62
2022-10-06T00:31:30.601Z,98.72
2022-10-06T00:32:30.520Z,98.72
2022-10-06T00:33:30.489Z,98.21
2022-10-06T00:34:30.484Z,98.32
2022-10-06T00:35:30.472Z,98.32
2022-10-06T00:36:30.474Z,98.27
2022-10-06T00:37:30.443Z,97.76
2022-10-06T00:38:30.806Z,97.76
2022-10-06T00:39:30.444Z,97.25
2022-10-06T00:40:30.408Z,97.61
2022-10-06T00:41:30.403Z,96.90
2022-10-06T00:42:30.403Z,97.61
2022-10-06T00:43:30.381Z,96.90
2022-10-06T00:44:30.392Z,97.31
2022-10-06T00:45:30.390Z,97.00
2022-10-06T00:46:30.410Z,96.60
2022-10-06T00:47:30.336Z,96.25
2022-10-06T00:48:30.998Z,96.15
2022-10-06T00:49:30.336Z,95.64
2022-10-06T00:50:30.319Z,96.15
2022-10-06T00:51:30.298Z,95.79
2022-10-06T00:52:30.294Z,95.50
2022-10-06T00:53:30.271Z,94.98
2022-10-06T00:54:30.275Z,94.54
2022-10-06T00:55:30.249Z,94.64
2022-10-06T00:56:30.252Z,94.43
2022-10-06T00:57:30.249Z,94.64
2022-10-06T00:58:37.926Z,93.58
2022-10-06T00:59:37.861Z,93.68
2022-10-06T01:00:30.290Z,93.99
2022-10-06T01:01:30.250Z,93.07
2022-10-06T01:02:30.345Z,93.48
2022-10-06T01:03:30.231Z,92.83
2022-10-06T01:04:30.263Z,93.38
2022-10-06T01:05:30.166Z,93.58
2022-10-06T01:06:30.148Z,92.97
2022-10-06T01:07:30.164Z,93.07
2022-10-06T01:08:30.665Z,94.09
2022-10-06T01:09:30.108Z,93.73
2022-10-06T01:10:30.106Z,93.88
2022-10-06T01:11:30.097Z,93.68
2022-10-06T01:12:30.072Z,93.73
2022-10-06T01:13:30.077Z,93.27
2022-10-06T01:14:30.074Z,93.83
2022-10-06T01:15:30.137Z,93.68
2022-10-06T01:16:30.029Z,93.78
2022-10-06T01:17:30.031Z,93.99
2022-10-06T01:18:30.253Z,94.09
2022-10-06T01:19:30.001Z,93.43
2022-10-06T01:20:30.001Z,93.78
2022-10-06T01:21:30.013Z,93.88
2022-10-06T01:22:29.972Z,93.07
2022-10-06T01:23:29.966Z,92.83
2022-10-06T01:24:37.584Z,93.13
2022-10-06T01:25:37.562Z,92.93
2022-10-06T01:26:37.597Z,92.83
2022-10-06T01:27:37.556Z,92.52
2022-10-06T01:28:30.245Z,92.42
2022-10-06T01:29:29.992Z,92.22
2022-10-06T01:30:29.931Z,92.72
2022-10-06T01:31:30.048Z,92.83
2022-10-06T01:32:29.878Z,92.97
2022-10-06T01:33:29.869Z,93.88
2022-10-06T01:34:29.851Z,93.58
2022-10-06T01:35:29.828Z,93.62
2022-10-06T01:36:29.852Z,94.54
2022-10-06T01:37:29.825Z,94.23
2022-10-06T01:38:30.174Z,94.74
2022-10-06T01:39:29.797Z,94.78
2022-10-06T01:40:29.782Z,94.78
2022-10-06T01:41:29.765Z,95.50
2022-10-06T01:42:29.787Z,95.50
2022-10-06T01:43:29.744Z,96.10
2022-10-06T01:44:29.758Z,96.00
2022-10-06T01:45:29.727Z,95.54
2022-10-06T01:46:29.841Z,96.04
2022-10-06T01:47:29.712Z,95.50
2022-10-06T01:48:29.981Z,96.35
2022-10-06T01:49:29.682Z,95.90
2022-10-06T01:50:29.678Z,95.79
2022-10-06T01:51:29.668Z,96.30
2022-10-06T01:52:29.655Z,95.90
2022-10-06T01:53:38.611Z,95.43
2022-10-06T01:54:37.347Z,96.15
2022-10-06T01:55:37.255Z,96.15
2022-10-06T01:56:38.233Z,96.45
2022-10-06T01:57:29.654Z,96.66
2022-10-06T01:58:29.924Z,96.66
2022-10-06T01:59:29.708Z,96.96
2022-10-06T02:00:29.600Z,96.86
2022-10-06T02:01:29.593Z,96.70
2022-10-06T02:02:29.562Z,97.41
2022-10-06T02:03:29.552Z,97.11
2022-10-06T02:04:29.544Z,97.00
2022-10-06T02:05:29.510Z,97.11
2022-10-06T02:06:29.592Z,97.41
2022-10-06T02:07:29.496Z,97.81
2022-10-06T02:08:29.919Z,97.41
2022-10-06T02:09:29.490Z,97.51
2022-10-06T02:10:29.471Z,97.71
2022-10-06T02:11:29.478Z,97.61
2022-10-06T02:12:29.439Z,97.92
2022-10-06T02:13:29.433Z,97.61
2022-10-06T02:14:29.423Z,97.51
2022-10-06T02:15:29.423Z,97.67
2022-10-06T02:16:29.505Z,97.56
2022-10-06T02:17:29.394Z,97.36
2022-10-06T02:18:29.654Z,97.36
2022-10-06T02:19:29.367Z,97.26
2022-10-06T02:20:29.360Z,97.22
2022-10-06T02:21:29.357Z,97.72
2022-10-06T02:22:29.339Z,96.71
2022-10-06T02:23:29.351Z,96.91
2022-10-06T02:24:29.310Z,96.61
2022-10-06T02:25:29.312Z,97.42
2022-10-06T02:26:29.289Z,96.51
2022-10-06T02:27:29.281Z,96.51
2022-10-06T02:28:29.831Z,96.30
2022-10-06T02:29:29.281Z,96.71
2022-10-06T02:30:29.265Z,96.61
2022-10-06T02:31:29.305Z,96.46
2022-10-06T02:32:29.242Z,96.36
2022-10-06T02:33:29.236Z,96.06
2022-10-06T02:34:29.222Z,96.26
2022-10-06T02:35:29.214Z,96.15
2022-10-06T02:36:29.191Z,96.15
2022-10-06T02:37:39.211Z,96.06
2022-10-06T02:38:38.231Z,96.15
2022-10-06T02:39:29.192Z,96.30
2022-10-06T02:40:29.193Z,96.06
2022-10-06T02:41:29.182Z,96.06
2022-10-06T02:42:29.168Z,95.95
2022-10-06T02:43:29.221Z,96.06
2022-10-06T02:44:29.148Z,96.06
2022-10-06T02:45:29.209Z,95.95
2022-10-06T02:46:29.156Z,96.26
2022-10-06T02:47:29.080Z,95.95
2022-10-06T02:48:29.454Z,95.86
2022-10-06T02:49:29.066Z,95.55
2022-10-06T02:50:29.065Z,95.86
2022-10-06T02:51:29.029Z,96.15
2022-10-06T02:52:29.023Z,96.06
2022-10-06T02:53:29.013Z,96.06
2022-10-06T02:54:29.033Z,96.36
2022-10-06T02:55:29.008Z,96.06
2022-10-06T02:56:28.984Z,95.95
2022-10-06T02:57:28.971Z,96.06
2022-10-06T02:58:29.379Z,96.15
2022-10-06T02:59:28.953Z,95.95
2022-10-06T03:00:28.944Z,95.86
2022-10-06T03:01:28.973Z,95.86
2022-10-06T03:02:29.033Z,96.06
2022-10-06T03:03:28.906Z,96.15
2022-10-06T03:04:28.899Z,96.22
2022-10-06T03:05:28.887Z,95.86
2022-10-06T03:06:28.916Z,95.81
2022-10-06T03:07:28.874Z,95.50
2022-10-06T03:08:29.211Z,96.22
2022-10-06T03:09:28.848Z,95.61
2022-10-06T03:10:28.831Z,95.36
2022-10-06T03:11:28.829Z,95.36
2022-10-06T03:12:28.821Z,94.65
2022-10-06T03:13:28.802Z,94.65
2022-10-06T03:14:28.797Z,94.60
2022-10-06T03:15:28.783Z,94.10
2022-10-06T03:16:28.810Z,94.30
2022-10-06T03:17:28.774Z,93.90
2022-10-06T03:18:29.045Z,94.30
2022-10-06T03:19:28.731Z,94.20
2022-10-06T03:20:28.743Z,94.76
2022-10-06T03:21:28.715Z,94.56
2022-10-06T03:22:28.741Z,95.21
2022-10-06T03:23:28.691Z,95.47
2022-10-06T03:24:28.688Z,95.57
2022-10-06T03:25:28.680Z,96.22
2022-10-06T03:26:28.674Z,96.08
2022-10-06T03:27:28.656Z,95.87
2022-10-06T03:28:29.083Z,95.83
2022-10-06T03:29:28.631Z,97.29
2022-10-06T03:30:28.621Z,97.19
2022-10-06T03:31:28.662Z,97.94
2022-10-06T03:32:28.610Z,98.00
2022-10-06T03:33:28.591Z,98.14
2022-10-06T03:34:28.579Z,98.45
2022-10-06T03:35:28.568Z,98.45
2022-10-06T03:36:28.559Z,99.16
2022-10-06T03:37:28.567Z,99.46
2022-10-06T03:38:28.957Z,98.35
2022-10-06T03:39:28.530Z,99.36
2022-10-06T03:40:28.548Z,99.46
2022-10-06T03:41:28.497Z,99.05
2022-10-06T03:42:28.490Z,98.85
2022-10-06T03:43:28.485Z,99.61
2022-10-06T03:44:39.272Z,99.51
2022-10-06T03:45:37.110Z,99.61
2022-10-06T03:46:37.414Z,99.51
2022-10-06T03:47:28.526Z,99.30
2022-10-06T03:48:28.825Z,99.30
2022-10-06T03:49:28.495Z,99.71
2022-10-06T03:50:28.475Z,99.10
2022-10-06T03:51:28.395Z,99.10
2022-10-06T03:52:28.380Z,99.10
2022-10-06T03:53:28.385Z,99.41
2022-10-06T03:54:28.375Z,99.41
2022-10-06T03:55:28.376Z,98.29
2022-10-06T03:56:28.385Z,97.49
2022-10-06T03:57:28.330Z,98.19
2022-10-06T03:58:28.607Z,97.73
2022-10-06T03:59:28.316Z,96.92
2022-10-06T04:00:28.328Z,96.88
2022-10-06T04:01:28.369Z,97.13
2022-10-06T04:02:28.374Z,97.53
2022-10-06T04:03:28.266Z,96.42
2022-10-06T04:04:28.260Z,96.26
2022-10-06T04:05:28.246Z,96.82
2022-10-06T04:06:28.253Z,96.97
2022-10-06T04:07:28.227Z,96.82
2022-10-06T04:08:28.475Z,95.71
2022-10-06T04:09:28.208Z,95.40
2022-10-06T04:10:28.339Z,95.30
2022-10-06T04:11:28.200Z,94.79
2022-10-06T04:12:28.187Z,95.10
2022-10-06T04:13:28.170Z,96.06
2022-10-06T04:14:28.160Z,94.79
2022-10-06T04:15:28.143Z,94.34
2022-10-06T04:16:28.190Z,93.68
2022-10-06T04:17:28.122Z,92.47
2022-10-06T04:18:28.653Z,92.26
2022-10-06T04:19:28.095Z,91.11
2022-10-06T04:20:28.103Z,91.51
2022-10-06T04:21:28.081Z,92.42
2022-10-06T04:22:28.083Z,92.36
2022-10-06T04:23:28.062Z,92.16
2022-10-06T04:24:28.048Z,92.57
2022-10-06T04:25:28.043Z,93.07
2022-10-06T04:26:28.050Z,93.68
2022-10-06T04:27:28.024Z,94.23
2022-10-06T04:28:28.470Z,94.74
2022-10-06T04:29:28.004Z,95.04
2022-10-06T04:30:27.988Z,94.84
2022-10-06T04:31:28.089Z,94.94
2022-10-06T04:32:27.993Z,94.64
2022-10-06T04:33:27.963Z,93.62
2022-10-06T04:34:27.944Z,93.42
2022-10-06T04:35:27.939Z,94.54
2022-10-06T04:36:27.919Z,93.73
2022-10-06T04:37:27.915Z,93.93
2022-10-06T04:38:28.313Z,92.91
2022-10-06T04:39:27.899Z,93.32
2022-10-06T04:40:27.880Z,92.31
2022-10-06T04:41:27.881Z,91.30
2022-10-06T04:42:31.326Z,91.24
2022-10-06T04:43:28.876Z,91.30
2022-10-06T04:44:27.846Z,91.19
2022-10-06T04:45:27.902Z,91.39
2022-10-06T04:46:42.608Z,91.70
2022-10-06T04:47:28.818Z,91.74
2022-10-06T04:48:28.239Z,91.85
2022-10-06T04:49:27.793Z,91.03
2022-10-06T04:50:27.791Z,90.53
2022-10-06T04:51:27.807Z,90.02
2022-10-06T04:52:27.751Z,88.96
2022-10-06T04:53:27.758Z,89.37
2022-10-06T04:54:32.760Z,90.48
2022-10-06T04:55:28.721Z,89.51
2022-10-06T04:56:27.715Z,90.48
2022-10-06T04:57:27.710Z,90.73
2022-10-06T04:58:28.060Z,90.02
2022-10-06T04:59:27.676Z,91.34
2022-10-06T05:00:27.692Z,90.83
2022-10-06T05:01:27.725Z,89.92
2022-10-06T05:02:27.680Z,89.41
2022-10-06T05:03:27.653Z,89.11
2022-10-06T05:04:27.632Z,87.89
2022-10-06T05:05:27.619Z,86.33
2022-10-06T05:06:27.619Z,87.45
2022-10-06T05:07:27.607Z,84.61
2022-10-06T05:08:28.095Z,85.93
2022-10-06T05:09:27.594Z,85.52
2022-10-06T05:10:27.593Z,85.93
2022-10-06T05:11:27.551Z,87.74
2022-10-06T05:12:27.543Z,87.65
2022-10-06T05:13:27.533Z,86.37
2022-10-06T05:14:27.543Z,86.68
2022-10-06T05:15:27.548Z,87.79
2022-10-06T05:16:27.789Z,88.70
2022-10-06T05:17:27.686Z,88.09
2022-10-06T05:18:28.523Z,89.21
2022-10-06T05:19:27.576Z,89.01
2022-10-06T05:20:27.469Z,89.65
2022-10-06T05:21:36.464Z,89.04
2022-10-06T05:22:27.519Z,88.75
2022-10-06T05:23:27.489Z,89.04
2022-10-06T05:24:36.242Z,88.95
2022-10-06T05:25:27.543Z,88.03
2022-10-06T05:26:27.492Z,88.84
2022-10-06T05:27:27.443Z,89.04
2022-10-06T05:28:28.424Z,89.35
2022-10-06T05:29:27.398Z,89.35
2022-10-06T05:30:27.372Z,88.28
2022-10-06T05:31:27.467Z,89.50
2022-10-06T05:32:27.363Z,89.09
2022-10-06T05:33:27.382Z,89.39
2022-10-06T05:34:27.347Z,89.84
2022-10-06T05:35:27.320Z,89.64
2022-10-06T05:36:27.296Z,90.14
2022-10-06T05:37:27.279Z,90.45
2022-10-06T05:38:27.733Z,89.13
2022-10-06T05:39:27.269Z,90.25
2022-10-06T05:40:27.254Z,90.09
2022-10-06T05:41:27.244Z,89.94
2022-10-06T05:42:29.679Z,89.64
2022-10-06T05:43:27.217Z,89.98
2022-10-06T05:44:27.225Z,90.49
2022-10-06T05:45:27.214Z,91.00
2022-10-06T05:46:28.249Z,90.19
2022-10-06T05:47:27.196Z,89.48
2022-10-06T05:48:27.642Z,90.19
2022-10-06T05:49:27.204Z,89.78
2022-10-06T05:50:27.197Z,89.58
2022-10-06T05:51:30.714Z,89.17
2022-10-06T05:52:27.190Z,88.12
2022-10-06T05:53:27.122Z,88.21
2022-10-06T05:54:36.969Z,87.81
2022-10-06T05:56:39.223Z,87.81
2022-10-06T05:58:49.870Z,88.16
2022-10-06T05:59:57.631Z,88.97
2022-10-06T06:00:58.653Z,89.58
2022-10-06T06:03:00.627Z,89.37
2022-10-06T06:04:00.478Z,89.58
2022-10-06T06:05:12.015Z,88.26
2022-10-06T06:06:10.121Z,89.17
2022-10-06T06:07:00.481Z,89.07
2022-10-06T06:08:12.152Z,89.17
2022-10-06T06:09:09.025Z,88.26
2022-10-06T06:10:09.469Z,88.12
2022-10-06T06:12:11.489Z,88.32
2022-10-06T06:14:29.835Z,89.33
2022-10-06T06:15:39.598Z,88.93
2022-10-06T06:17:52.628Z,89.54
2022-10-06T06:19:00.211Z,89.74
2022-10-06T06:20:01.159Z,89.74
2022-10-06T06:21:01.255Z,90.25
2022-10-06T06:22:02.385Z,90.05
2022-10-06T06:23:01.330Z,90.25
2022-10-06T06:25:12.499Z,90.35
2022-10-06T06:26:11.815Z,89.90
2022-10-06T06:27:11.983Z,89.74
2022-10-06T06:28:11.866Z,89.19
2022-10-06T06:29:22.353Z,88.89
2022-10-06T06:30:11.832Z,89.19
2022-10-06T06:31:14.099Z,89.90
2022-10-06T06:32:11.830Z,89.80
2022-10-06T06:34:22.628Z,89.96
2022-10-06T06:35:22.511Z,89.65
2022-10-06T06:36:22.771Z,89.35
2022-10-06T06:37:22.486Z,89.35
2022-10-06T06:38:32.806Z,89.45
2022-10-06T06:39:34.183Z,89.39
2022-10-06T06:40:22.610Z,89.45
2022-10-06T06:41:22.675Z,89.29
2022-10-06T06:42:22.641Z,89.70
2022-10-06T06:43:22.624Z,89.45
2022-10-06T06:44:22.404Z,89.70
2022-10-06T06:45:22.406Z,90.00
2022-10-06T06:46:22.493Z,90.31
2022-10-06T06:47:24.468Z,89.65
2022-10-06T06:48:22.404Z,89.70
2022-10-06T06:49:22.440Z,90.31
2022-10-06T06:50:22.461Z,89.35
2022-10-06T06:51:22.462Z,89.04
2022-10-06T06:52:22.326Z,89.55
2022-10-06T06:53:22.357Z,89.96
2022-10-06T06:54:22.315Z,90.06
2022-10-06T06:55:22.278Z,90.67
2022-10-06T06:56:22.328Z,89.86
2022-10-06T06:57:22.268Z,89.35
2022-10-06T06:58:22.386Z,90.32
2022-10-06T06:59:22.761Z,89.86
2022-10-06T07:00:22.233Z,89.76
2022-10-06T07:01:22.301Z,90.06
2022-10-06T07:02:22.242Z,90.16
2022-10-06T07:03:52.102Z,90.26
2022-10-06T07:04:23.271Z,89.81
2022-10-06T07:05:22.328Z,89.86
2022-10-06T07:06:27.107Z,89.31
2022-10-06T07:07:23.415Z,89.51
2022-10-06T07:08:22.315Z,89.11
2022-10-06T07:09:22.237Z,90.02
2022-10-06T07:10:32.959Z,89.72
2022-10-06T07:13:46.173Z,88.76
2022-10-06T07:14:45.593Z,87.85
2022-10-06T07:15:45.641Z,88.92
2022-10-06T07:16:45.524Z,89.23
2022-10-06T07:17:45.500Z,89.12
2022-10-06T07:18:45.463Z,89.32
2022-10-06T07:19:45.450Z,89.32
2022-10-06T07:20:45.490Z,87.87
2022-10-06T07:21:45.463Z,88.27
2022-10-06T07:22:45.418Z,87.56
2022-10-06T07:23:45.439Z,86.96
2022-10-06T07:24:45.414Z,87.56
2022-10-06T07:25:45.398Z,85.90
2022-10-06T07:26:45.393Z,86.41
2022-10-06T07:27:45.393Z,87.42
2022-10-06T07:28:45.379Z,85.60
2022-10-06T07:29:45.427Z,84.93
2022-10-06T07:30:45.350Z,83.92
2022-10-06T07:31:45.363Z,84.67
2022-10-06T07:32:45.327Z,85.07
2022-10-06T07:33:45.341Z,85.27
2022-10-06T07:34:45.343Z,85.11
2022-10-06T07:35:45.314Z,84.70
2022-10-06T07:36:53.144Z,84.91
2022-10-06T07:39:02.031Z,85.21
2022-10-06T07:40:02.062Z,83.90
2022-10-06T07:42:02.849Z,83.39
2022-10-06T07:43:01.834Z,83.39
2022-10-06T07:44:07.126Z,83.59
2022-10-06T07:45:02.897Z,83.09
2022-10-06T07:46:01.847Z,83.09
2022-10-06T07:47:01.788Z,83.55
2022-10-06T07:48:01.804Z,83.35
2022-10-06T07:49:01.759Z,82.34
2022-10-06T07:50:01.965Z,82.24
2022-10-06T07:51:01.810Z,81.39
2022-10-06T07:52:01.748Z,80.47
2022-10-06T07:53:01.740Z,80.01
2022-10-06T07:54:01.719Z,79.91
2022-10-06T07:55:01.704Z,80.11
2022-10-06T07:56:01.738Z,80.52
2022-10-06T07:57:01.687Z,80.11
2022-10-06T07:58:01.680Z,80.92
2022-10-06T07:59:01.657Z,79.10
2022-10-06T08:00:03.305Z,79.36
2022-10-06T08:01:01.652Z,78.86
2022-10-06T08:02:01.809Z,78.25
2022-10-06T08:03:01.675Z,79.06
2022-10-06T08:04:01.610Z,78.45
2022-10-06T08:05:01.666Z,78.35
2022-10-06T08:06:01.588Z,77.95
2022-10-06T08:07:01.614Z,77.44
2022-10-06T08:08:01.683Z,76.43
2022-10-06T08:09:01.561Z,76.12
2022-10-06T08:10:01.611Z,76.03
2022-10-06T08:11:02.086Z,75.92
2022-10-06T08:12:01.526Z,75.62
2022-10-06T08:13:01.537Z,76.50
2022-10-06T08:14:01.538Z,76.70
2022-10-06T08:15:04.541Z,76.43
2022-10-06T08:16:02.504Z,77.00
2022-10-06T08:17:01.482Z,77.81
2022-10-06T08:18:01.490Z,76.12
2022-10-06T08:19:01.456Z,75.62
2022-10-06T08:20:01.463Z,75.07
2022-10-06T08:21:01.531Z,75.01
2022-10-06T08:22:04.811Z,74.77
2022-10-06T08:23:01.406Z,75.79
2022-10-06T08:24:01.424Z,74.16
2022-10-06T08:25:10.729Z,74.63
2022-10-06T08:26:01.505Z,75.18
2022-10-06T08:27:01.369Z,76.26
2022-10-06T08:28:09.426Z,75.85
2022-10-06T08:29:01.367Z,75.75
2022-10-06T08:30:01.455Z,75.31
2022-10-06T08:31:01.463Z,74.94
2022-10-06T08:32:01.397Z,75.85
2022-10-06T08:33:01.295Z,76.05
2022-10-06T08:34:01.325Z,76.15
2022-10-06T08:35:01.296Z,75.14
2022-10-06T08:36:01.283Z,75.55
2022-10-06T08:37:19.255Z,74.74
2022-10-06T08:38:02.254Z,74.84
2022-10-06T08:39:01.347Z,74.30
2022-10-06T08:40:01.271Z,75.51
2022-10-06T08:41:01.215Z,76.39
2022-10-06T08:42:01.225Z,74.66
2022-10-06T08:43:01.222Z,75.07
2022-10-06T08:44:01.190Z,74.87
2022-10-06T08:45:01.178Z,73.55
2022-10-06T08:46:01.181Z,74.37
2022-10-06T08:47:01.150Z,73.93
2022-10-06T08:48:01.180Z,72.24
2022-10-06T08:49:01.132Z,72.14
2022-10-06T08:50:01.182Z,71.53
2022-10-06T08:51:01.105Z,72.14
2022-10-06T08:52:01.180Z,74.46
2022-10-06T08:53:01.103Z,74.77
2022-10-06T08:54:01.075Z,75.17
2022-10-06T08:55:01.087Z,73.86
2022-10-06T08:56:01.077Z,72.95
2022-10-06T08:57:01.046Z,74.33
2022-10-06T08:58:01.134Z,73.11
2022-10-06T08:59:01.036Z,72.31
2022-10-06T09:00:01.020Z,72.38
2022-10-06T09:01:01.090Z,72.00
2022-10-06T09:02:01.111Z,72.68
2022-10-06T09:03:00.986Z,73.79
2022-10-06T09:04:00.976Z,73.49
2022-10-06T09:05:01.011Z,72.68
2022-10-06T09:06:00.947Z,73.55
2022-10-06T09:07:01.014Z,75.07
2022-10-06T09:08:00.937Z,74.52
2022-10-06T09:09:00.917Z,73.55
2022-10-06T09:10:00.907Z,74.83
2022-10-06T09:11:00.922Z,73.85
2022-10-06T09:12:00.985Z,72.64
2022-10-06T09:13:00.886Z,72.78
2022-10-06T09:14:00.916Z,73.99
2022-10-06T09:15:00.854Z,73.32
2022-10-06T09:16:00.913Z,72.85
2022-10-06T09:17:09.490Z,73.39
2022-10-06T09:18:00.961Z,74.70
2022-10-06T09:19:08.686Z,75.01
2022-10-06T09:20:01.849Z,74.30
2022-10-06T09:21:00.901Z,73.69
2022-10-06T09:22:00.833Z,74.03
2022-10-06T09:23:00.769Z,74.98
2022-10-06T09:24:00.799Z,74.98
2022-10-06T09:25:00.768Z,75.48
2022-10-06T09:26:00.737Z,75.68
2022-10-06T09:27:00.725Z,75.95
2022-10-06T09:28:00.935Z,75.24
2022-10-06T09:29:00.747Z,75.51
2022-10-06T09:30:00.693Z,75.10
2022-10-06T09:31:00.754Z,76.22
2022-10-06T09:32:00.672Z,75.61
2022-10-06T09:33:00.688Z,76.82
2022-10-06T09:34:00.693Z,76.02
2022-10-06T09:35:00.707Z,75.92
2022-10-06T09:36:00.636Z,75.51
2022-10-06T09:37:02.025Z,75.92
2022-10-06T09:38:04.398Z,75.78
2022-10-06T09:39:01.607Z,75.27
2022-10-06T09:40:00.595Z,74.37
2022-10-06T09:41:00.591Z,72.14
2022-10-06T09:42:00.612Z,74.26
2022-10-06T09:43:00.572Z,73.96
2022-10-06T09:44:00.594Z,74.13
2022-10-06T09:45:00.593Z,73.52
2022-10-06T09:46:00.615Z,73.62
2022-10-06T09:47:00.520Z,74.73
2022-10-06T09:48:00.538Z,72.04
2022-10-06T09:49:00.507Z,73.02
2022-10-06T09:50:00.496Z,72.11
2022-10-06T09:51:00.485Z,72.21
2022-10-06T09:52:00.540Z,72.17
2022-10-06T09:53:00.488Z,70.96
2022-10-06T09:54:00.453Z,71.17
2022-10-06T09:55:00.429Z,70.86
2022-10-06T09:56:00.433Z,70.15
2022-10-06T09:57:00.414Z,68.74
2022-10-06T09:58:00.413Z,69.82
2022-10-06T09:59:00.443Z,68.44
2022-10-06T10:00:00.541Z,68.74
2022-10-06T10:01:00.548Z,67.73
2022-10-06T10:02:00.453Z,68.74
2022-10-06T10:03:00.401Z,68.81
2022-10-06T10:04:20.686Z,68.81
2022-10-06T10:05:01.352Z,68.51
2022-10-06T10:06:00.324Z,69.92
2022-10-06T10:07:00.376Z,68.37
2022-10-06T10:08:00.307Z,69.21
2022-10-06T10:09:00.297Z,69.11
2022-10-06T10:10:00.290Z,68.91
2022-10-06T10:11:00.279Z,70.73
2022-10-06T10:12:00.367Z,69.01
2022-10-06T10:13:00.278Z,68.71
2022-10-06T10:14:00.236Z,69.15
2022-10-06T10:15:00.242Z,68.87
2022-10-06T10:16:00.305Z,68.87
2022-10-06T10:17:00.238Z,69.78
2022-10-06T10:18:00.205Z,69.28
2022-10-06T10:19:00.198Z,69.08
2022-10-06T10:20:00.524Z,68.57
2022-10-06T10:21:00.179Z,69.38
2022-10-06T10:22:00.298Z,69.89
2022-10-06T10:23:00.179Z,69.15
2022-10-06T10:24:00.129Z,69.55
2022-10-06T10:25:00.173Z,71.13
2022-10-06T10:26:00.120Z,69.82
2022-10-06T10:27:00.110Z,68.01
2022-10-06T10:28:00.177Z,70.53
2022-10-06T10:29:00.105Z,68.57
2022-10-06T10:30:00.170Z,68.88
2022-10-06T10:31:00.134Z,69.08
2022-10-06T10:32:00.109Z,68.48
2022-10-06T10:33:00.052Z,66.46
2022-10-06T10:34:12.764Z,69.68
2022-10-06T10:35:07.773Z,70.06
2022-10-06T10:36:07.679Z,70.06
2022-10-06T10:37:00.139Z,66.93
2022-10-06T10:38:00.046Z,68.54
2022-10-06T10:39:00.059Z,66.83
2022-10-06T10:40:00.071Z,66.42
2022-10-06T10:40:59.984Z,66.83
2022-10-06T10:41:59.962Z,67.84
2022-10-06T10:42:59.944Z,67.84
2022-10-06T10:44:03.934Z,66.46
2022-10-06T10:45:00.201Z,67.84
2022-10-06T10:45:59.944Z,68.65
2022-10-06T10:46:59.939Z,67.33
2022-10-06T10:47:59.913Z,69.01
2022-10-06T10:48:59.882Z,68.24
2022-10-06T10:49:59.882Z,67.40
2022-10-06T10:50:59.876Z,66.90
2022-10-06T10:51:59.839Z,67.30
2022-10-06T10:52:59.880Z,66.67
2022-10-06T10:53:59.828Z,67.17
2022-10-06T10:55:00.119Z,66.60
2022-10-06T10:55:59.818Z,67.91
2022-10-06T10:57:07.488Z,66.09
2022-10-06T10:57:59.873Z,68.11
2022-10-06T10:58:59.862Z,67.94
2022-10-06T10:59:59.883Z,67.97
2022-10-06T11:00:59.986Z,68.27
2022-10-06T11:01:59.789Z,68.81
2022-10-06T11:02:59.767Z,68.37
2022-10-06T11:03:59.732Z,68.77
2022-10-06T11:05:00.008Z,66.25
2022-10-06T11:05:59.733Z,67.57
2022-10-06T11:06:59.737Z,67.27
2022-10-06T11:07:59.679Z,65.65
2022-10-06T11:08:59.682Z,67.43
2022-10-06T11:09:59.690Z,65.82
2022-10-06T11:10:59.645Z,65.92
2022-10-06T11:11:59.637Z,65.62
2022-10-06T11:12:59.640Z,66.53
2022-10-06T11:13:59.610Z,66.36
2022-10-06T11:15:00.266Z,66.59
2022-10-06T11:15:59.620Z,68.51
2022-10-06T11:16:59.578Z,66.76
2022-10-06T11:17:59.572Z,67.50
2022-10-06T11:18:59.573Z,67.40
2022-10-06T11:19:59.564Z,66.08
2022-10-06T11:20:59.541Z,65.45
2022-10-06T11:21:59.549Z,65.88
2022-10-06T11:22:59.514Z,64.67
2022-10-06T11:23:59.534Z,67.80
2022-10-06T11:24:59.850Z,64.87
2022-10-06T11:25:59.480Z,65.35
2022-10-06T11:26:59.466Z,65.85
2022-10-06T11:27:59.500Z,65.45
2022-10-06T11:28:59.443Z,64.61
2022-10-06T11:29:59.794Z,65.72
2022-10-06T11:30:59.435Z,63.93
2022-10-06T11:31:59.531Z,65.05
2022-10-06T11:32:59.409Z,64.61
2022-10-06T11:33:59.398Z,66.22
2022-10-06T11:34:59.394Z,66.22
2022-10-06T11:35:59.468Z,63.20
2022-10-06T11:36:59.366Z,64.58
2022-10-06T11:37:59.359Z,63.47
2022-10-06T11:38:59.338Z,65.49
2022-10-06T11:39:59.704Z,65.19
2022-10-06T11:40:59.314Z,66.16
2022-10-06T11:41:59.434Z,66.47
2022-10-06T11:42:59.329Z,63.87
2022-10-06T11:43:59.282Z,64.28
2022-10-06T11:44:59.557Z,64.51
2022-10-06T11:45:59.361Z,64.61
2022-10-06T11:46:59.329Z,63.73
2022-10-06T11:47:59.257Z,65.05
2022-10-06T11:48:59.244Z,64.24
2022-10-06T11:49:59.266Z,64.72
2022-10-06T11:50:59.215Z,64.61
2022-10-06T11:52:01.626Z,66.02
2022-10-06T11:52:59.184Z,65.36
2022-10-06T11:53:59.190Z,64.45
2022-10-06T11:54:59.559Z,64.35
2022-10-06T11:55:59.155Z,63.65
2022-10-06T11:56:59.154Z,62.74
2022-10-06T11:57:59.139Z,64.75
2022-10-06T11:58:59.125Z,64.05
2022-10-06T11:59:59.124Z,64.62
2022-10-06T12:00:59.135Z,65.73
2022-10-06T12:01:59.253Z,63.85
2022-10-06T12:02:59.227Z,65.16
2022-10-06T12:03:59.107Z,65.46
2022-10-06T12:04:59.353Z,65.46
2022-10-06T12:05:59.054Z,66.09
2022-10-06T12:06:59.104Z,65.92
2022-10-06T12:07:59.046Z,65.92
2022-10-06T12:08:59.054Z,67.74
2022-10-06T12:09:59.009Z,65.32
2022-10-06T12:10:59.014Z,65.42
2022-10-06T12:11:58.991Z,66.60
2022-10-06T12:13:08.094Z,64.28
2022-10-06T12:17:19.317Z,66.83
2022-10-06T12:17:59.949Z,66.33
2022-10-06T12:18:58.934Z,66.13
2022-10-06T12:19:58.914Z,66.46
2022-10-06T12:20:58.913Z,65.72
2022-10-06T12:21:58.964Z,65.82
2022-10-06T12:22:58.876Z,66.93
2022-10-06T12:23:58.882Z,65.82
2022-10-06T12:24:59.249Z,66.56
2022-10-06T12:25:58.946Z,64.92
2022-10-06T12:26:58.827Z,66.13
2022-10-06T12:27:58.904Z,65.39
2022-10-06T12:28:58.822Z,65.79
2022-10-06T12:29:59.183Z,64.38
2022-10-06T12:30:58.936Z,65.36
2022-10-06T12:31:58.805Z,66.63
2022-10-06T12:32:58.811Z,65.53
2022-10-06T12:33:58.748Z,64.52
2022-10-06T12:34:59.101Z,66.16
2022-10-06T12:35:58.744Z,65.53
2022-10-06T12:38:09.539Z,63.04
2022-10-06T12:39:09.611Z,63.54
2022-10-06T12:40:09.663Z,64.15
2022-10-06T12:41:09.484Z,63.78
2022-10-06T12:42:09.446Z,61.66
2022-10-06T12:43:09.417Z,62.06
2022-10-06T12:44:09.480Z,62.87
2022-10-06T12:45:09.386Z,65.79
2022-10-06T12:46:09.434Z,64.69
2022-10-06T12:47:09.392Z,64.38
2022-10-06T12:48:09.356Z,62.77
2022-10-06T12:49:09.416Z,65.76
2022-10-06T12:50:09.360Z,63.14
2022-10-06T12:51:09.316Z,61.16
2022-10-06T12:52:09.371Z,62.66
2022-10-06T12:53:09.309Z,64.98
2022-10-06T12:54:09.295Z,63.47
2022-10-06T12:55:09.304Z,63.37
2022-10-06T12:56:09.293Z,60.65
2022-10-06T12:57:09.271Z,59.75
2022-10-06T12:58:09.253Z,63.07
2022-10-06T12:59:09.246Z,63.47
2022-10-06T13:00:09.244Z,63.07
2022-10-06T13:01:09.278Z,64.48
2022-10-06T13:02:09.332Z,62.46
2022-10-06T13:03:09.206Z,62.46
2022-10-06T13:04:09.201Z,60.96
2022-10-06T13:05:09.235Z,64.75
2022-10-06T13:06:09.156Z,61.23
2022-10-06T13:07:09.230Z,61.63
2022-10-06T13:08:09.152Z,63.37
2022-10-06T13:09:09.181Z,62.66
2022-10-06T13:10:09.222Z,62.87
2022-10-06T13:11:09.152Z,61.83